createdAt,value
2022-08-26T00:02:17.404Z,23.98
2022-08-26T00:04:50.509Z,23.98
2022-08-26T00:07:19.169Z,24.08
2022-08-26T00:09:47.590Z,24.41
2022-08-26T00:12:15.824Z,24.30
2022-08-26T00:14:44.019Z,24.00
2022-08-26T00:17:12.299Z,23.56
2022-08-26T00:19:41.399Z,23.24
2022-08-26T00:22:11.306Z,23.47
2022-08-26T00:24:39.848Z,23.58
2022-08-26T00:27:16.198Z,23.61
2022-08-26T00:29:45.565Z,23.84
2022-08-26T00:32:13.765Z,23.51
2022-08-26T00:34:42.866Z,23.24
2022-08-26T00:37:15.672Z,24.00
2022-08-26T00:39:44.365Z,23.95
2022-08-26T00:42:13.950Z,23.74
2022-08-26T00:44:42.186Z,24.07
2022-08-26T00:47:23.759Z,23.84
2022-08-26T00:49:52.568Z,23.97
2022-08-26T00:52:23.421Z,23.70
2022-08-26T00:54:55.065Z,24.03
2022-08-26T00:57:24.325Z,24.27
2022-08-26T00:59:54.697Z,23.77
2022-08-26T01:02:23.243Z,24.12
2022-08-26T01:04:54.422Z,24.21
2022-08-26T01:07:27.384Z,24.23
2022-08-26T01:09:56.104Z,24.20
2022-08-26T01:12:25.521Z,24.07
2022-08-26T01:14:53.904Z,24.28
2022-08-26T01:17:22.180Z,24.55
2022-08-26T01:19:52.330Z,24.12
2022-08-26T01:22:23.097Z,23.95
2022-08-26T01:24:58.485Z,24.09
2022-08-26T01:27:32.548Z,23.80
2022-08-26T01:30:01.577Z,23.95
2022-08-26T01:32:33.417Z,23.68
2022-08-26T01:35:02.256Z,23.76
2022-08-26T01:37:35.026Z,23.86
2022-08-26T01:40:06.426Z,23.39
2022-08-26T01:42:35.802Z,23.73
2022-08-26T01:45:07.624Z,23.32
2022-08-26T01:47:36.883Z,23.41
2022-08-26T01:50:09.541Z,23.54
2022-08-26T01:52:41.466Z,23.37
2022-08-26T01:55:13.642Z,23.69
2022-08-26T01:57:57.416Z,23.09
2022-08-26T02:00:26.583Z,23.47
2022-08-26T02:03:17.212Z,23.61
2022-08-26T02:05:46.459Z,23.16
2022-08-26T02:08:24.518Z,23.03
2022-08-26T02:10:56.228Z,23.34
2022-08-26T02:13:26.693Z,22.96
2022-08-26T02:15:55.859Z,23.18
2022-08-26T02:18:24.755Z,23.04
2022-08-26T02:20:54.543Z,23.09
2022-08-26T02:23:24.379Z,23.00
2022-08-26T02:25:57.979Z,23.08
2022-08-26T02:28:28.325Z,23.29
2022-08-26T02:30:56.921Z,23.38
2022-08-26T02:33:25.113Z,23.19
2022-08-26T02:35:53.293Z,22.75
2022-08-26T02:38:21.558Z,22.65
2022-08-26T02:40:49.760Z,23.18
2022-08-26T02:43:31.549Z,23.08
2022-08-26T02:46:02.408Z,22.73
2022-08-26T02:48:31.401Z,23.10
2022-08-26T02:51:01.839Z,22.94
2022-08-26T02:53:31.891Z,22.60
2022-08-26T02:56:00.871Z,22.95
2022-08-26T02:58:30.912Z,22.44
2022-08-26T03:00:59.184Z,22.63
2022-08-26T03:03:27.808Z,22.49
2022-08-26T03:05:56.016Z,22.45
2022-08-26T03:08:24.463Z,23.08
2022-08-26T03:10:53.546Z,22.81
2022-08-26T03:13:21.855Z,23.09
2022-08-26T03:15:51.645Z,23.08
2022-08-26T03:18:19.841Z,22.73
2022-08-26T03:20:48.899Z,22.72
2022-08-26T03:23:17.073Z,23.06
2022-08-26T03:25:50.339Z,23.32
2022-08-26T03:28:19.364Z,23.07
2022-08-26T03:30:48.076Z,23.34
2022-08-26T03:33:19.159Z,23.04
2022-08-26T03:35:50.497Z,22.66
2022-08-26T03:38:19.940Z,22.96
2022-08-26T03:40:48.225Z,22.77
2022-08-26T03:43:17.223Z,22.89
2022-08-26T03:45:45.972Z,22.94
2022-08-26T03:48:14.469Z,22.94
2022-08-26T03:50:44.598Z,23.07
2022-08-26T03:53:13.433Z,22.86
2022-08-26T03:55:42.056Z,22.54
2022-08-26T03:58:12.089Z,23.07
2022-08-26T04:00:40.775Z,23.38
2022-08-26T04:03:09.993Z,23.18
2022-08-26T04:05:39.011Z,23.14
2022-08-26T04:08:08.530Z,23.11
2022-08-26T04:10:38.946Z,23.22
2022-08-26T04:13:07.456Z,23.36
2022-08-26T04:15:35.808Z,23.22
2022-08-26T04:18:04.530Z,23.15
2022-08-26T04:20:33.087Z,23.13
2022-08-26T04:23:01.451Z,23.29
2022-08-26T04:25:31.254Z,23.03
2022-08-26T04:27:59.568Z,23.02
2022-08-26T04:30:27.813Z,22.85
2022-08-26T04:32:56.077Z,22.87
2022-08-26T04:35:26.112Z,23.06
2022-08-26T04:37:55.519Z,23.37
2022-08-26T04:40:24.099Z,22.92
2022-08-26T04:42:56.466Z,23.34
2022-08-26T04:45:25.350Z,23.70
2022-08-26T04:47:56.376Z,23.44
2022-08-26T04:50:27.063Z,23.96
2022-08-26T04:52:56.231Z,24.03
2022-08-26T04:55:37.291Z,24.16
2022-08-26T04:58:10.137Z,24.07
2022-08-26T05:00:39.321Z,24.11
2022-08-26T05:03:10.534Z,23.93
2022-08-26T05:05:41.121Z,23.90
2022-08-26T05:08:11.301Z,23.86
2022-08-26T05:10:44.011Z,23.89
2022-08-26T05:13:15.536Z,23.95
2022-08-26T05:15:44.939Z,24.02
2022-08-26T05:18:14.979Z,23.98
2022-08-26T05:20:45.532Z,24.04
2022-08-26T05:23:15.615Z,23.91
2022-08-26T05:25:46.227Z,24.04
2022-08-26T05:28:17.579Z,24.11
2022-08-26T05:30:46.891Z,24.13
2022-08-26T05:33:15.414Z,24.35
2022-08-26T05:35:44.262Z,24.51
2022-08-26T05:38:15.641Z,24.82
2022-08-26T05:40:47.174Z,24.78
2022-08-26T05:43:18.027Z,24.86
2022-08-26T05:45:50.482Z,25.05
2022-08-26T05:48:22.698Z,25.05
2022-08-26T05:50:54.230Z,25.10
2022-08-26T05:53:25.942Z,25.27
2022-08-26T05:55:55.958Z,25.57
2022-08-26T05:58:26.785Z,25.11
2022-08-26T06:01:00.241Z,25.53
2022-08-26T06:03:29.342Z,25.42
2022-08-26T06:05:57.903Z,25.78
2022-08-26T06:08:26.230Z,25.55
2022-08-26T06:10:56.848Z,25.65
2022-08-26T06:13:30.266Z,26.11
2022-08-26T06:16:00.866Z,26.45
2022-08-26T06:18:32.827Z,26.38
2022-08-26T06:21:01.239Z,25.62
2022-08-26T06:23:47.307Z,25.67
2022-08-26T06:26:16.750Z,25.96
2022-08-26T06:28:46.600Z,25.85
2022-08-26T06:31:15.687Z,26.39
2022-08-26T06:33:45.362Z,25.95
2022-08-26T06:36:18.696Z,26.44
2022-08-26T06:38:48.124Z,26.96
2022-08-26T06:41:17.222Z,26.57
2022-08-26T06:43:47.058Z,26.15
2022-08-26T06:46:17.656Z,26.77
2022-08-26T06:48:46.416Z,26.99
2022-08-26T06:51:16.440Z,27.39
2022-08-26T06:53:47.107Z,27.38
2022-08-26T06:56:18.101Z,27.57
2022-08-26T06:58:48.754Z,27.23
2022-08-26T07:01:19.642Z,27.43
2022-08-26T07:03:48.775Z,27.42
2022-08-26T07:06:19.451Z,27.44
2022-08-26T07:08:47.677Z,27.40
2022-08-26T07:11:16.944Z,28.19
2022-08-26T07:13:45.129Z,27.74
2022-08-26T07:16:17.787Z,27.76
2022-08-26T07:18:46.834Z,28.21
2022-08-26T07:21:17.312Z,28.07
2022-08-26T07:23:46.619Z,27.72
2022-08-26T07:26:18.683Z,28.01
2022-08-26T07:28:48.533Z,28.51
2022-08-26T07:31:18.703Z,28.61
2022-08-26T07:33:47.211Z,28.72
2022-08-26T07:36:16.078Z,28.83
2022-08-26T07:38:45.457Z,29.18
2022-08-26T07:41:14.469Z,29.13
2022-08-26T07:43:43.034Z,29.27
2022-08-26T07:46:16.490Z,29.20
2022-08-26T07:48:46.611Z,29.22
2022-08-26T07:51:15.557Z,29.33
2022-08-26T07:53:43.767Z,29.36
2022-08-26T07:56:16.337Z,29.52
2022-08-26T07:58:47.690Z,29.63
2022-08-26T08:01:18.735Z,29.47
2022-08-26T08:03:51.627Z,29.65
2022-08-26T08:06:20.183Z,30.12
2022-08-26T08:08:50.869Z,29.91
2022-08-26T08:11:21.274Z,29.80
2022-08-26T08:13:55.960Z,30.21
2022-08-26T08:16:25.474Z,30.42
2022-08-26T08:18:56.492Z,30.11
2022-08-26T08:21:25.429Z,30.49
2022-08-26T08:23:54.768Z,30.48
2022-08-26T08:26:23.258Z,30.87
2022-08-26T08:28:52.144Z,30.72
2022-08-26T08:31:33.235Z,30.76
2022-08-26T08:34:11.302Z,30.88
2022-08-26T08:36:39.888Z,31.04
2022-08-26T08:39:08.158Z,31.16
2022-08-26T08:41:46.370Z,31.20
2022-08-26T08:44:18.471Z,31.17
2022-08-26T08:46:48.475Z,31.32
2022-08-26T08:49:19.951Z,30.99
2022-08-26T08:51:52.757Z,31.50
2022-08-26T08:54:22.262Z,31.77
2022-08-26T08:56:53.812Z,31.90
2022-08-26T08:59:24.186Z,32.50
2022-08-26T09:02:03.122Z,32.65
2022-08-26T09:04:46.602Z,32.92
2022-08-26T09:07:19.278Z,33.04
2022-08-26T09:09:50.602Z,32.91
2022-08-26T09:12:29.240Z,32.11
2022-08-26T09:15:02.813Z,32.57
2022-08-26T09:17:40.062Z,32.84
2022-08-26T09:20:15.695Z,33.22
2022-08-26T09:22:44.167Z,34.09
2022-08-26T09:25:15.047Z,34.13
2022-08-26T09:27:46.074Z,33.99
2022-08-26T09:30:17.179Z,33.50
2022-08-26T09:32:59.753Z,34.26
2022-08-26T09:35:32.034Z,34.97
2022-08-26T09:38:00.671Z,35.63
2022-08-26T09:40:35.020Z,34.68
2022-08-26T09:43:10.110Z,34.44
2022-08-26T09:45:38.988Z,34.61
2022-08-26T09:48:08.348Z,34.88
2022-08-26T09:50:40.027Z,35.24
2022-08-26T09:53:17.160Z,35.57
2022-08-26T09:55:50.388Z,35.07
2022-08-26T09:58:33.832Z,35.01
2022-08-26T10:01:04.604Z,34.44
2022-08-26T10:03:36.097Z,34.61
2022-08-26T10:06:08.725Z,34.91
2022-08-26T10:08:40.997Z,35.56
2022-08-26T10:11:29.237Z,35.45
2022-08-26T10:14:00.938Z,35.97
2022-08-26T10:16:33.633Z,35.93
2022-08-26T10:19:07.713Z,35.45
2022-08-26T10:21:40.146Z,36.15
2022-08-26T10:24:11.269Z,35.72
2022-08-26T10:26:43.542Z,36.48
2022-08-26T10:29:15.306Z,35.77
2022-08-26T10:31:46.404Z,35.28
2022-08-26T10:34:18.086Z,36.08
2022-08-26T10:37:13.824Z,37.07
2022-08-26T10:39:46.702Z,37.33
2022-08-26T10:42:20.735Z,37.02
2022-08-26T10:44:51.600Z,37.94
2022-08-26T10:47:22.922Z,37.85
2022-08-26T10:49:57.511Z,38.97
2022-08-26T10:52:37.918Z,38.51
2022-08-26T10:55:13.153Z,37.89
2022-08-26T10:57:47.881Z,38.16
2022-08-26T11:00:37.152Z,37.93
2022-08-26T11:03:10.816Z,38.57
2022-08-26T11:06:17.060Z,38.15
2022-08-26T11:08:51.105Z,38.78
2022-08-26T11:11:42.721Z,39.08
2022-08-26T11:14:11.824Z,38.29
2022-08-26T11:16:43.255Z,39.00
2022-08-26T11:19:13.528Z,39.40
2022-08-26T11:21:50.852Z,38.28
2022-08-26T11:25:00.418Z,36.99
2022-08-26T11:27:57.734Z,37.64
2022-08-26T11:30:44.723Z,38.11
2022-08-26T11:33:51.173Z,37.11
2022-08-26T11:36:55.729Z,36.89
2022-08-26T11:39:28.826Z,37.66
2022-08-26T11:42:00.940Z,38.46
2022-08-26T11:44:38.214Z,38.44
2022-08-26T11:47:11.536Z,39.24
2022-08-26T11:49:40.170Z,39.71
2022-08-26T11:52:20.700Z,39.62
2022-08-26T11:55:02.832Z,38.94
2022-08-26T11:57:31.751Z,39.56
2022-08-26T12:00:01.415Z,39.93
2022-08-26T12:02:29.926Z,40.57
2022-08-26T12:04:58.410Z,40.59
2022-08-26T12:07:30.110Z,40.09
2022-08-26T12:10:02.114Z,40.22
2022-08-26T12:12:34.946Z,38.91
2022-08-26T12:15:16.120Z,38.76
2022-08-26T12:17:45.489Z,38.92
2022-08-26T12:20:30.310Z,39.12
2022-08-26T12:23:01.195Z,38.95
2022-08-26T12:25:32.939Z,39.98
2022-08-26T12:28:06.041Z,39.65
2022-08-26T12:30:34.560Z,37.35
2022-08-26T12:33:23.090Z,37.64
2022-08-26T12:35:56.277Z,36.81
2022-08-26T12:38:27.562Z,38.08
2022-08-26T12:40:57.005Z,38.97
2022-08-26T12:43:43.493Z,38.61
2022-08-26T12:46:13.764Z,38.05
2022-08-26T12:48:44.240Z,39.23
2022-08-26T12:51:21.379Z,38.09
2022-08-26T12:53:51.416Z,39.12
2022-08-26T12:56:23.577Z,39.19
2022-08-26T12:59:06.191Z,39.63
2022-08-26T13:01:40.644Z,40.28
2022-08-26T13:04:09.078Z,39.45
2022-08-26T13:06:37.327Z,38.67
2022-08-26T13:09:31.459Z,39.41
2022-08-26T13:11:59.812Z,40.49
2022-08-26T13:14:30.523Z,39.93
2022-08-26T13:16:59.101Z,39.81
2022-08-26T13:19:27.544Z,40.80
2022-08-26T13:21:57.498Z,41.18
2022-08-26T13:24:30.142Z,40.18
2022-08-26T13:26:58.544Z,39.68
2022-08-26T13:29:26.763Z,39.89
2022-08-26T13:31:55.132Z,40.07
2022-08-26T13:34:24.569Z,38.84
2022-08-26T13:36:54.718Z,38.57
2022-08-26T13:39:23.214Z,39.76
2022-08-26T13:41:53.621Z,39.78
2022-08-26T13:44:21.897Z,39.26
2022-08-26T13:46:50.547Z,38.31
2022-08-26T13:49:18.771Z,37.81
2022-08-26T13:51:47.015Z,37.79
2022-08-26T13:54:15.606Z,37.99
2022-08-26T13:56:43.933Z,37.93
2022-08-26T13:59:13.575Z,38.42
2022-08-26T14:01:43.308Z,39.72
2022-08-26T14:04:11.535Z,38.88
2022-08-26T14:06:39.798Z,38.93
2022-08-26T14:09:08.072Z,38.94
2022-08-26T14:11:54.169Z,39.28
2022-08-26T14:14:25.127Z,39.75
2022-08-26T14:17:00.006Z,39.93
2022-08-26T14:19:30.069Z,40.46
2022-08-26T14:22:01.053Z,40.03
2022-08-26T14:24:30.016Z,40.21
2022-08-26T14:26:58.712Z,39.69
2022-08-26T14:29:28.413Z,39.65
2022-08-26T14:31:57.935Z,39.90
2022-08-26T14:34:26.302Z,41.22
2022-08-26T14:36:54.519Z,41.07
2022-08-26T14:39:22.769Z,40.97
2022-08-26T14:41:55.038Z,40.40
2022-08-26T14:44:24.940Z,39.71
2022-08-26T14:46:54.909Z,39.66
2022-08-26T14:49:24.598Z,39.76
2022-08-26T14:51:52.880Z,39.05
2022-08-26T14:54:20.976Z,38.97
2022-08-26T14:56:51.307Z,38.95
2022-08-26T14:59:21.446Z,39.58
2022-08-26T15:01:50.059Z,40.31
2022-08-26T15:04:19.814Z,40.36
2022-08-26T15:06:48.360Z,39.78
2022-08-26T15:09:17.273Z,39.60
2022-08-26T15:11:47.754Z,39.33
2022-08-26T15:14:19.477Z,38.24
2022-08-26T15:16:49.008Z,38.56
2022-08-26T15:19:19.475Z,38.52
2022-08-26T15:21:48.297Z,38.59
2022-08-26T15:24:19.469Z,38.27
2022-08-26T15:26:48.472Z,38.77
2022-08-26T15:29:16.840Z,38.79
2022-08-26T15:31:45.243Z,39.39
2022-08-26T15:34:16.816Z,39.51
2022-08-26T15:36:48.059Z,39.44
2022-08-26T15:39:17.236Z,39.39
2022-08-26T15:41:46.104Z,38.74
2022-08-26T15:44:17.830Z,38.65
2022-08-26T15:46:46.212Z,37.99
2022-08-26T15:49:17.754Z,37.85
2022-08-26T15:51:52.807Z,37.86
2022-08-26T15:54:22.820Z,37.76
2022-08-26T15:56:52.514Z,38.55
2022-08-26T15:59:22.568Z,38.37
2022-08-26T16:01:50.999Z,38.57
2022-08-26T16:04:20.257Z,38.32
2022-08-26T16:06:52.239Z,38.30
2022-08-26T16:09:24.230Z,38.14
2022-08-26T16:11:53.060Z,38.16
2022-08-26T16:14:21.718Z,37.94
2022-08-26T16:16:50.593Z,38.39
2022-08-26T16:19:19.022Z,38.48
2022-08-26T16:21:47.287Z,37.52
2022-08-26T16:24:17.035Z,36.94
2022-08-26T16:26:45.625Z,37.24
2022-08-26T16:29:15.652Z,37.38
2022-08-26T16:31:44.736Z,37.38
2022-08-26T16:34:12.929Z,36.79
2022-08-26T16:36:41.366Z,35.99
2022-08-26T16:39:10.849Z,36.07
2022-08-26T16:41:40.482Z,35.49
2022-08-26T16:44:09.496Z,35.21
2022-08-26T16:46:39.698Z,34.48
2022-08-26T16:49:08.349Z,34.72
2022-08-26T16:51:37.798Z,34.60
2022-08-26T16:54:07.971Z,34.29
2022-08-26T16:56:37.283Z,34.09
2022-08-26T16:59:10.580Z,34.19
2022-08-26T17:01:38.917Z,33.60
2022-08-26T17:04:07.194Z,33.34
2022-08-26T17:06:35.567Z,32.71
2022-08-26T17:09:03.877Z,31.83
2022-08-26T17:11:32.182Z,31.66
2022-08-26T17:14:00.513Z,31.46
2022-08-26T17:16:30.110Z,32.47
2022-08-26T17:18:59.167Z,32.92
2022-08-26T17:21:30.732Z,32.51
2022-08-26T17:23:59.379Z,32.33
2022-08-26T17:26:28.168Z,32.38
2022-08-26T17:28:56.876Z,32.24
2022-08-26T17:31:25.217Z,32.40
2022-08-26T17:33:55.582Z,32.13
2022-08-26T17:36:27.929Z,32.14
2022-08-26T17:38:57.505Z,32.20
2022-08-26T17:41:26.397Z,32.04
2022-08-26T17:43:54.705Z,32.05
2022-08-26T17:46:23.422Z,32.00
2022-08-26T17:48:51.714Z,31.86
2022-08-26T17:51:23.150Z,31.82
2022-08-26T17:53:52.248Z,31.74
2022-08-26T17:56:24.105Z,31.69
2022-08-26T17:58:53.161Z,31.57
2022-08-26T18:01:22.075Z,31.49
2022-08-26T18:03:50.588Z,31.38
2022-08-26T18:06:19.454Z,31.35
2022-08-26T18:08:49.375Z,31.31
2022-08-26T18:11:20.315Z,31.22
2022-08-26T18:13:48.731Z,31.08
2022-08-26T18:16:18.517Z,31.02
2022-08-26T18:18:47.633Z,30.91
2022-08-26T18:21:18.406Z,30.85
2022-08-26T18:23:48.931Z,30.53
2022-08-26T18:26:19.246Z,30.55
2022-08-26T18:28:47.475Z,30.65
2022-08-26T18:31:16.412Z,30.71
2022-08-26T18:33:44.933Z,30.83
2022-08-26T18:36:18.479Z,30.36
2022-08-26T18:38:50.420Z,30.27
2022-08-26T18:41:20.830Z,29.53
2022-08-26T18:43:50.563Z,29.24
2022-08-26T18:46:22.092Z,29.88
2022-08-26T18:48:51.027Z,29.38
2022-08-26T18:51:21.344Z,29.48
2022-08-26T18:53:51.522Z,29.47
2022-08-26T18:56:20.439Z,29.34
2022-08-26T18:58:48.930Z,28.99
2022-08-26T19:01:18.025Z,29.21
2022-08-26T19:03:47.641Z,29.51
2022-08-26T19:06:17.612Z,29.14
2022-08-26T19:08:46.190Z,29.44
2022-08-26T19:11:31.829Z,29.50
2022-08-26T19:14:01.727Z,28.89
2022-08-26T19:16:31.091Z,28.96
2022-08-26T19:19:01.410Z,28.93
2022-08-26T19:21:30.683Z,29.04
2022-08-26T19:23:59.625Z,28.88
2022-08-26T19:26:30.442Z,29.23
2022-08-26T19:28:59.576Z,28.82
2022-08-26T19:31:28.589Z,29.10
2022-08-26T19:33:58.336Z,28.18
2022-08-26T19:36:28.660Z,28.44
2022-08-26T19:38:57.410Z,28.49
2022-08-26T19:41:37.319Z,28.69
2022-08-26T19:44:11.675Z,28.62
2022-08-26T19:46:40.557Z,28.56
2022-08-26T19:49:09.348Z,28.08
2022-08-26T19:51:38.424Z,28.08
2022-08-26T19:54:06.870Z,27.69
2022-08-26T19:56:35.301Z,27.33
2022-08-26T19:59:03.610Z,27.76
2022-08-26T20:01:33.497Z,28.13
2022-08-26T20:04:02.216Z,28.06
2022-08-26T20:06:31.075Z,27.76
2022-08-26T20:08:59.576Z,27.60
2022-08-26T20:11:28.416Z,27.46
2022-08-26T20:13:57.455Z,27.55
2022-08-26T20:16:26.199Z,27.82
2022-08-26T20:19:13.925Z,27.34
2022-08-26T20:21:43.371Z,27.80
2022-08-26T20:24:14.126Z,27.91
2022-08-26T20:26:43.881Z,27.57
2022-08-26T20:29:14.332Z,27.86
2022-08-26T20:31:44.373Z,27.46
2022-08-26T20:34:14.964Z,27.01
2022-08-26T20:36:46.175Z,27.22
2022-08-26T20:39:15.229Z,27.05
2022-08-26T20:41:45.577Z,27.35
2022-08-26T20:44:14.444Z,26.84
2022-08-26T20:46:42.695Z,26.87
2022-08-26T20:49:11.512Z,27.12
2022-08-26T20:51:41.349Z,27.15
2022-08-26T20:54:10.596Z,27.38
2022-08-26T20:56:39.380Z,27.10
2022-08-26T20:59:08.419Z,26.78
2022-08-26T21:01:42.291Z,27.01
2022-08-26T21:04:14.975Z,26.70
2022-08-26T21:06:45.627Z,26.72
2022-08-26T21:09:22.101Z,26.34
2022-08-26T21:11:51.131Z,26.61
2022-08-26T21:14:20.638Z,26.59
2022-08-26T21:16:48.999Z,26.07
2022-08-26T21:19:19.151Z,26.52
2022-08-26T21:21:49.462Z,26.89
2022-08-26T21:24:18.339Z,26.37
2022-08-26T21:26:47.083Z,26.53
2022-08-26T21:29:15.643Z,26.89
2022-08-26T21:31:46.481Z,26.88
2022-08-26T21:34:15.532Z,26.38
2022-08-26T21:36:43.929Z,26.81
2022-08-26T21:39:13.999Z,26.58
2022-08-26T21:41:42.813Z,26.37
2022-08-26T21:44:11.621Z,26.39
2022-08-26T21:46:40.309Z,26.42
2022-08-26T21:49:10.493Z,26.16
2022-08-26T21:51:40.683Z,26.04
2022-08-26T21:54:11.322Z,25.78
2022-08-26T21:56:44.316Z,25.73
2022-08-26T21:59:13.283Z,26.12
2022-08-26T22:01:41.592Z,26.19
2022-08-26T22:04:10.707Z,26.08
2022-08-26T22:06:43.437Z,26.11
2022-08-26T22:09:12.599Z,26.07
2022-08-26T22:11:42.327Z,26.08
2022-08-26T22:14:11.172Z,25.71
2022-08-26T22:16:39.547Z,26.09
2022-08-26T22:19:08.147Z,26.22
2022-08-26T22:21:40.757Z,26.03
2022-08-26T22:24:12.217Z,26.24
2022-08-26T22:26:42.109Z,26.01
2022-08-26T22:29:10.449Z,26.26
2022-08-26T22:31:39.746Z,26.24
2022-08-26T22:34:10.734Z,25.91
2022-08-26T22:36:43.180Z,25.83
2022-08-26T22:39:13.492Z,25.87
2022-08-26T22:41:44.140Z,25.80
2022-08-26T22:44:12.852Z,25.54
2022-08-26T22:46:41.884Z,25.93
2022-08-26T22:49:10.398Z,25.88
2022-08-26T22:51:38.914Z,25.59
2022-08-26T22:54:08.038Z,25.77
2022-08-26T22:56:36.837Z,25.80
2022-08-26T22:59:08.040Z,25.56
2022-08-26T23:01:37.689Z,25.45
2022-08-26T23:04:07.442Z,25.31
2022-08-26T23:06:37.629Z,26.15
2022-08-26T23:09:06.798Z,25.65
2022-08-26T23:11:35.139Z,25.28
2022-08-26T23:14:06.443Z,25.64
2022-08-26T23:16:39.219Z,25.72
2022-08-26T23:19:09.197Z,25.26
2022-08-26T23:21:37.473Z,25.26
2022-08-26T23:24:06.842Z,25.69
2022-08-26T23:26:35.770Z,25.45
2022-08-26T23:29:05.055Z,24.97
2022-08-26T23:31:34.071Z,25.00
2022-08-26T23:34:21.303Z,25.48
2022-08-26T23:36:49.668Z,25.25
2022-08-26T23:39:17.985Z,25.51
2022-08-26T23:41:46.456Z,25.29
2022-08-26T23:44:14.715Z,25.68
2022-08-26T23:46:42.962Z,25.70
2022-08-26T23:49:12.599Z,25.61
2022-08-26T23:51:58.426Z,25.57
2022-08-26T23:54:26.852Z,25.44
2022-08-26T23:56:55.148Z,25.34
2022-08-26T23:59:24.265Z,25.81
